Jump to content

  •  

HORIZON AIRLINES FLIGHT QX2235 FLOWN ON 01-10-2018 BY CAPTAIN TYLER HANUS

Pilot StatsCaptain Tyler Hanus (LDP525) • 294.2 total hours • 82 total flights [View Logbook]
FLIGHT DETAILS
StatusReceived and approved on 2018-01-09 at 20:01:25
Origin AirportSpokane Intl (KGEG) • Spokane, Washington, United States (2,371 feet MSL)
Filed Flight PlanKGEG ODESS J34 MWH J90 NORMY KSEA
Destination AirportSeattle-Tacoma Intl (KSEA) • Seattle, Washington, United States (433 feet MSL)
Alternate AirportQuillayute (KUIL) • Quillayute, Washington, United States (194 feet MSL)
AirlineHorizon Airlines
AircraftDe Havilland DHC-8-400 Dash 8/8Q (DH4 / DHC-8-400)
FS Aircraft UsedMJC8Q400_QXE
Cruising AltitudeFL220
Distance Flown194 nautical miles
Passengers Onboard36 passengers (51.43% full)
DEPARTURE DETAILS
Time Out15:59:27
Taxi Data53,940 lbs total with 5,197 lbs of fuel onboard
Takeoff Data16:09:08 (10 minutes after leaving gate/ramp) • 53,779 lbs total • 19° pitch at 127 knots
Departure METARKGEG 092321Z 24003KT 1/4SM R21/P6000FT BR OVC002 02/02 A2954 RMK AO2 SFC VIS 3/4 T00170017
ARRIVAL DETAILS
Landing Data17:10:27 • 51,684 lbs total • 19° pitch doing 125 knots at a rate of -117.65 feet/minute with 2,862 lbs of fuel onboard
Time In17:15:13 (5 minutes after landing)
Ramp Weight51,605 lbs total
Total Fuel Used2,335 lbs
Total Block Time01:13:34 (1.2 hours) while 14 minutes were spent on the ground
Arrival METARKSEA 100053Z 20010KT 8SM BKN014 OVC030 07/06 A2972 RMK AO2 RAE51 SLP071 P0000 T00720056
MISCELLANEOUS DETAILS
LiveDISPATCH Version4.8.3.1
FS Version
FSUIPC Version4.97
OS VersionWindows 7 32-bit
Screen Resolution1360 x 768
Pilot's CommentsNo Comments Reported
FLIGHT MAP